createdAt,value
2023-01-25T00:03:49.533Z,102606.72
2023-01-25T00:08:51.697Z,102598.69
2023-01-25T00:13:54.365Z,102596.13
2023-01-25T00:18:58.992Z,102599.69
2023-01-25T00:24:01.337Z,102591.50
2023-01-25T00:29:03.165Z,102596.78
2023-01-25T00:34:29.574Z,102597.69
2023-01-25T00:39:31.117Z,102595.06
2023-01-25T00:44:32.724Z,102594.31
2023-01-25T00:49:34.516Z,102595.09
2023-01-25T00:54:36.106Z,102585.44
2023-01-25T00:59:38.411Z,102589.09
2023-01-25T01:04:40.119Z,102581.09
2023-01-25T01:09:43.932Z,102579.28
2023-01-25T01:14:45.429Z,102575.78
2023-01-25T01:19:47.012Z,102571.38
2023-01-25T01:24:49.464Z,102572.28
2023-01-25T01:29:51.037Z,102559.22
2023-01-25T01:34:53.792Z,102549.50
2023-01-25T01:39:55.351Z,102537.19
2023-01-25T01:44:56.992Z,102531.00
2023-01-25T01:50:15.892Z,102523.09
2023-01-25T01:55:22.914Z,102512.50
2023-01-25T02:00:29.589Z,102519.78
2023-01-25T02:05:46.957Z,102511.81
2023-01-25T02:10:50.163Z,102502.09
2023-01-25T02:15:52.245Z,102502.88
2023-01-25T02:20:57.946Z,102503.69
2023-01-25T02:26:03.362Z,102485.25
2023-01-25T02:31:05.241Z,102478.25
2023-01-25T02:36:06.770Z,102477.41
2023-01-25T02:41:15.539Z,102474.81
2023-01-25T02:46:23.579Z,102461.56
2023-01-25T02:51:27.542Z,102455.34
2023-01-25T02:56:30.025Z,102459.72
2023-01-25T03:01:36.626Z,102464.38
2023-01-25T03:06:39.530Z,102458.13
2023-01-25T03:11:42.163Z,102463.41
2023-01-25T03:16:44.566Z,102456.41
2023-01-25T03:21:46.800Z,102448.56
2023-01-25T03:27:07.546Z,102445.03
2023-01-25T03:32:17.188Z,102445.94
2023-01-25T03:37:18.719Z,102446.72
2023-01-25T03:42:21.403Z,102444.03
2023-01-25T03:47:27.069Z,102436.16
2023-01-25T03:52:31.269Z,102438.03
2023-01-25T03:57:33.790Z,102444.25
2023-01-25T04:02:39.309Z,102439.91
2023-01-25T04:07:42.518Z,102430.19
2023-01-25T04:12:44.643Z,102429.16
2023-01-25T04:17:46.251Z,102410.09
2023-01-25T04:22:58.449Z,102417.03
2023-01-25T04:28:06.695Z,102415.22
2023-01-25T04:33:08.232Z,102415.28
2023-01-25T04:38:10.782Z,102417.88
2023-01-25T04:43:16.222Z,102427.56
2023-01-25T04:48:19.164Z,102421.59
2023-01-25T04:53:25.949Z,102414.25
2023-01-25T04:58:31.059Z,102414.34
2023-01-25T05:03:32.896Z,102414.25
2023-01-25T05:08:34.512Z,102417.81
2023-01-25T05:13:37.706Z,102414.41
2023-01-25T05:18:49.426Z,102406.50
2023-01-25T05:24:04.630Z,102400.44
2023-01-25T05:29:09.290Z,102391.53
2023-01-25T05:34:19.315Z,102393.19
2023-01-25T05:39:21.816Z,102391.44
2023-01-25T05:44:24.157Z,102386.25
2023-01-25T05:49:26.547Z,102381.97
2023-01-25T05:54:28.133Z,102373.09
2023-01-25T05:59:36.802Z,102389.69
2023-01-25T06:04:42.167Z,102382.75
2023-01-25T06:09:44.913Z,102369.47
2023-01-25T06:14:47.356Z,102374.75
2023-01-25T06:19:48.718Z,102370.28
2023-01-25T06:24:57.068Z,102374.94
2023-01-25T06:29:58.506Z,102371.44
2023-01-25T06:34:59.947Z,102366.16
2023-01-25T06:40:01.610Z,102364.25
2023-01-25T06:45:03.158Z,102365.09
2023-01-25T06:50:04.989Z,102360.75
2023-01-25T06:55:08.465Z,102367.94
2023-01-25T07:00:49.379Z,102355.63
2023-01-25T07:05:51.132Z,102349.59
2023-01-25T07:10:57.419Z,102340.78
2023-01-25T07:16:04.331Z,102341.47
2023-01-25T07:21:14.464Z,102341.47
2023-01-25T07:26:26.231Z,102333.44
2023-01-25T07:31:28.354Z,102324.75
2023-01-25T07:36:29.794Z,102324.81
2023-01-25T07:41:32.431Z,102323.03
2023-01-25T07:46:33.861Z,102310.69
2023-01-25T07:51:35.349Z,102307.22
2023-01-25T07:56:38.429Z,102299.22
2023-01-25T08:02:08.667Z,102303.53
2023-01-25T08:24:45.992Z,102282.53
2023-01-25T08:29:47.490Z,102286.88
2023-01-25T08:34:48.958Z,102286.06
2023-01-25T08:39:50.410Z,102278.06
2023-01-25T08:44:51.947Z,102278.97
2023-01-25T08:49:55.282Z,102280.78
2023-01-25T08:54:56.823Z,102284.25
2023-01-25T08:59:58.293Z,102281.72
2023-01-25T09:04:59.739Z,102272.09
2023-01-25T09:10:01.403Z,102265.75
2023-01-25T09:15:03.847Z,102264.06
2023-01-25T09:20:07.515Z,102255.31
2023-01-25T09:25:09.323Z,102245.56
2023-01-25T09:30:18.310Z,102243.81
2023-01-25T09:35:24.075Z,102249.03
2023-01-25T09:40:32.574Z,102247.28
2023-01-25T09:45:35.964Z,102244.78
2023-01-25T09:50:59.873Z,102233.47
2023-01-25T09:56:12.586Z,102236.84
2023-01-25T10:01:41.716Z,102245.47
2023-01-25T10:07:02.723Z,102241.69
2023-01-25T10:12:14.862Z,102245.94
2023-01-25T10:17:38.765Z,102240.44
2023-01-25T10:22:51.069Z,102229.34
2023-01-25T10:28:25.227Z,102216.34
2023-01-25T10:33:29.336Z,102201.94
2023-01-25T10:38:45.393Z,102196.59
2023-01-25T10:43:47.145Z,102196.53
2023-01-25T10:48:48.616Z,102180.59
2023-01-25T10:55:14.174Z,102167.72
2023-01-25T11:00:44.523Z,102159.41
2023-01-25T11:13:29.344Z,102148.03
2023-01-25T11:18:36.343Z,102146.56
2023-01-25T11:23:40.618Z,102135.78
2023-01-25T11:29:05.385Z,102131.78
2023-01-25T11:34:10.717Z,102116.78
2023-01-25T11:39:38.086Z,102111.19
2023-01-25T11:45:06.257Z,102093.75
2023-01-25T11:50:23.826Z,102087.63
2023-01-25T11:55:34.895Z,102077.81
2023-01-25T12:00:49.354Z,102067.91
2023-01-25T12:06:12.387Z,102050.41
2023-01-25T12:11:19.792Z,102049.75
2023-01-25T12:16:27.330Z,102037.44
2023-01-25T12:21:50.344Z,102024.38
2023-01-25T12:27:05.348Z,102008.28
2023-01-25T12:32:26.942Z,102000.25
2023-01-25T12:37:35.285Z,101990.34
2023-01-25T12:42:44.420Z,101984.03
2023-01-25T12:48:16.794Z,101977.72
2023-01-25T12:53:26.774Z,101963.59
2023-01-25T12:58:47.398Z,101964.16
2023-01-25T13:04:09.379Z,101954.16
2023-01-25T13:09:19.164Z,101951.72
2023-01-25T13:14:28.500Z,101943.69
2023-01-25T13:19:29.877Z,101934.78
2023-01-25T13:24:33.816Z,101938.44
2023-01-25T13:56:35.130Z,101890.63
2023-01-25T14:01:37.009Z,101883.16
2023-01-25T14:06:40.745Z,101890.16
2023-01-25T14:11:59.878Z,101883.84
2023-01-25T14:17:22.696Z,101868.44
2023-01-25T14:22:33.268Z,101868.97
2023-01-25T14:27:37.233Z,101856.25
2023-01-25T14:32:41.478Z,101852.00
2023-01-25T14:37:43.285Z,101850.81
2023-01-25T14:42:44.791Z,101846.66
2023-01-25T14:47:58.298Z,101834.63
2023-01-25T14:53:22.175Z,101828.56
2023-01-25T14:58:25.288Z,101819.97
2023-01-25T15:03:27.378Z,101821.06
2023-01-25T15:08:39.138Z,101806.72
2023-01-25T15:13:40.564Z,101795.91
2023-01-25T15:18:49.318Z,101794.50
2023-01-25T15:23:51.978Z,101797.91
2023-01-25T15:28:55.774Z,101782.75
2023-01-25T15:33:58.072Z,101774.94
2023-01-25T15:38:59.559Z,101775.94
2023-01-25T15:44:01.421Z,101774.09
2023-01-25T15:49:05.501Z,101762.78
2023-01-25T15:54:07.399Z,101751.78
2023-01-25T15:59:15.420Z,101747.75
2023-01-25T16:04:16.901Z,101741.06
2023-01-25T16:09:27.162Z,101731.34
2023-01-25T16:14:31.143Z,101720.38
2023-01-25T16:19:33.504Z,101712.91
2023-01-25T16:24:35.342Z,101698.22
2023-01-25T16:29:36.787Z,101698.88
2023-01-25T16:34:38.667Z,101702.88
2023-01-25T16:39:40.111Z,101683.16
2023-01-25T16:44:41.558Z,101695.03
2023-01-25T16:49:43.035Z,101685.31
2023-01-25T16:54:44.461Z,101679.03
2023-01-25T16:59:45.902Z,101679.59
2023-01-25T17:04:47.351Z,101670.78
2023-01-25T17:09:48.798Z,101664.84
2023-01-25T17:14:50.228Z,101665.72
2023-01-25T17:19:51.837Z,101665.44
2023-01-25T17:24:55.605Z,101659.91
2023-01-25T17:29:57.103Z,101651.66
2023-01-25T17:35:00.200Z,101643.19
2023-01-25T17:40:01.637Z,101638.31
2023-01-25T17:45:03.222Z,101640.53
2023-01-25T17:50:04.948Z,101629.22
2023-01-25T17:55:06.923Z,101627.97
2023-01-25T18:00:11.853Z,101615.69
2023-01-25T18:05:17.184Z,101611.81
2023-01-25T18:10:19.028Z,101611.50
2023-01-25T18:15:22.322Z,101598.34
2023-01-25T18:20:24.196Z,101597.13
2023-01-25T18:25:31.220Z,101592.38
2023-01-25T18:30:37.211Z,101598.63
2023-01-25T18:35:38.866Z,101593.88
2023-01-25T18:40:41.498Z,101591.09
2023-01-25T18:45:43.648Z,101579.00
2023-01-25T18:50:45.098Z,101578.09
2023-01-25T18:56:01.413Z,101569.59
2023-01-25T19:01:17.841Z,101562.81
2023-01-25T19:06:19.984Z,101552.34
2023-01-25T19:11:22.539Z,101551.06
2023-01-25T19:16:24.566Z,101532.81
2023-01-25T19:21:27.787Z,101521.25
2023-01-25T19:26:29.532Z,101516.81
2023-01-25T19:31:32.507Z,101514.06
2023-01-25T19:36:36.593Z,101508.59
2023-01-25T19:41:41.177Z,101512.97
2023-01-25T19:46:43.017Z,101509.41
2023-01-25T19:51:48.805Z,101503.91
2023-01-25T19:56:50.532Z,101502.44
2023-01-25T20:01:52.409Z,101504.84
2023-01-25T20:06:54.002Z,101489.63
2023-01-25T20:11:56.619Z,101498.94
2023-01-25T20:16:58.106Z,101487.72
2023-01-25T20:22:00.530Z,101480.66
2023-01-25T20:27:04.251Z,101479.81
2023-01-25T20:32:06.059Z,101472.97
2023-01-25T20:37:07.548Z,101459.38
2023-01-25T20:42:09.034Z,101457.03
2023-01-25T20:47:10.532Z,101446.50
2023-01-25T20:52:13.743Z,101445.31
2023-01-25T20:57:15.190Z,101436.09
2023-01-25T21:02:16.659Z,101433.56
2023-01-25T21:07:18.108Z,101421.13
2023-01-25T21:12:19.531Z,101418.78
2023-01-25T21:17:20.960Z,101411.97
2023-01-25T21:22:22.433Z,101412.91
2023-01-25T21:27:25.023Z,101397.50
2023-01-25T21:32:26.489Z,101399.44
2023-01-25T21:37:28.837Z,101388.19
2023-01-25T21:42:32.355Z,101383.22
2023-01-25T21:47:33.900Z,101385.13
2023-01-25T21:52:36.304Z,101386.06
2023-01-25T21:57:40.925Z,101388.72
2023-01-25T22:02:43.310Z,101375.84
2023-01-25T22:07:44.824Z,101376.56
2023-01-25T22:12:46.299Z,101380.31
2023-01-25T22:17:47.730Z,101374.78
2023-01-25T22:22:49.184Z,101377.41
2023-01-25T22:27:55.462Z,101372.94
2023-01-25T22:32:56.913Z,101376.97
2023-01-25T22:37:58.745Z,101366.56
2023-01-25T22:43:00.189Z,101361.28
2023-01-25T22:48:01.613Z,101359.84
2023-01-25T22:53:03.037Z,101356.81
2023-01-25T22:58:04.590Z,101347.56
2023-01-25T23:03:06.054Z,101344.22
2023-01-25T23:08:07.528Z,101337.94
2023-01-25T23:13:08.969Z,101329.44
2023-01-25T23:18:29.061Z,101334.63
2023-01-25T23:23:31.240Z,101329.44
2023-01-25T23:28:32.685Z,101314.31
2023-01-25T23:33:34.112Z,101309.22
2023-01-25T23:38:35.532Z,101297.41
2023-01-25T23:43:37.629Z,101291.69
2023-01-25T23:48:39.062Z,101279.88
2023-01-25T23:53:40.910Z,101279.00
2023-01-25T23:58:43.158Z,101279.97
